Time;durP1;ratioP1;P1;durP2;ratioP2;P2;SDS_P1;SDS_P2;PMS_P1;PMS_P2;Temp;Humidity;BMP_temperature;BMP_pressure;BME280_temperature;BME280_humidity;BME280_pressure;Samples;Min_cycle;Max_cycle;Signal;HPM_P1;HPM_P2
2023/08/29 00:01:52;;;;;;;;;;;16.10;99.90;;;;;;7336920;19;108816;-67
2023/08/29 00:04:20;;;;;;;;;;;16.10;99.90;;;;;;7339636;19;110180;-67
2023/08/29 00:06:47;;;;;;;;;;;16.10;99.90;;;;;;7341469;19;109275;-67
2023/08/29 00:09:14;;;;;;;;;;;16.00;99.90;;;;;;7339925;19;109767;-67
2023/08/29 00:11:41;;;;;;;;;;;16.00;99.90;;;;;;7337487;19;110392;-67
2023/08/29 00:14:09;;;;;;;;;;;16.00;99.90;;;;;;7337781;19;109801;-68
2023/08/29 00:16:37;;;;;;;;;;;16.00;99.90;;;;;;7330054;19;109283;-66
2023/08/29 00:19:05;;;;;;;;;;;16.00;99.90;;;;;;7340561;19;112972;-67
2023/08/29 00:21:32;;;;;;;;;;;15.90;99.90;;;;;;7332787;19;109704;-66
2023/08/29 00:23:59;;;;;;;;;;;15.90;99.90;;;;;;7336017;19;110151;-67
2023/08/29 00:26:26;;;;;;;;;;;15.90;99.90;;;;;;7337486;19;109205;-67
2023/08/29 00:28:54;;;;;;;;;;;15.90;99.90;;;;;;7336201;19;108974;-66
2023/08/29 00:31:21;;;;;;;;;;;15.90;99.90;;;;;;7336324;19;109712;-66
2023/08/29 00:33:48;;;;;;;;;;;15.80;99.90;;;;;;7336502;19;109564;-66
2023/08/29 00:36:16;;;;;;;;;;;15.80;99.90;;;;;;7334823;19;108866;-66
2023/08/29 00:38:43;;;;;;;;;;;15.70;99.90;;;;;;7340461;19;109999;-66
2023/08/29 00:41:11;;;;;;;;;;;15.60;99.90;;;;;;7339460;19;109936;-66
2023/08/29 00:43:38;;;;;;;;;;;15.50;99.90;;;;;;7337893;19;109168;-66
2023/08/29 00:46:06;;;;;;;;;;;15.40;99.90;;;;;;7340433;19;108430;-66
2023/08/29 00:48:34;;;;;;;;;;;15.40;99.90;;;;;;7334511;19;109603;-66
2023/08/29 00:51:02;;;;;;;;;;;15.40;99.90;;;;;;7337479;19;110196;-66
2023/08/29 00:53:30;;;;;;;;;;;15.40;99.90;;;;;;7338919;19;109726;-65
2023/08/29 00:55:58;;;;;;;;;;;15.40;99.90;;;;;;7334901;19;108675;-66
2023/08/29 00:58:25;;;;;;;;;;;15.30;99.90;;;;;;7335206;19;110556;-66
2023/08/29 01:00:52;;;;;;;;;;;15.20;99.90;;;;;;7337613;19;110031;-66
2023/08/29 01:03:19;;;;;;;;;;;15.10;99.90;;;;;;7336880;19;109294;-66
2023/08/29 01:05:47;;;;;;;;;;;15.00;99.90;;;;;;7331945;19;109153;-67
2023/08/29 01:08:14;;;;;;;;;;;15.00;99.90;;;;;;7337793;19;109077;-66
2023/08/29 01:10:41;;;;;;;;;;;14.90;99.90;;;;;;7333794;19;109203;-66
2023/08/29 01:13:22;;;;;;;;;;;15.00;99.90;;;;;;7335001;19;108670;-66
2023/08/29 01:15:51;;;;;;;;;;;15.00;99.90;;;;;;7333979;19;111484;-67
2023/08/29 01:18:21;;;;;;;;;;;15.00;99.90;;;;;;7334520;19;109726;-66
2023/08/29 01:20:49;;;;;;;;;;;15.00;99.90;;;;;;7336365;19;108383;-66
2023/08/29 01:23:42;;;;;;;;;;;15.00;99.90;;;;;;7337949;19;109795;-66
2023/08/29 01:26:14;;;;;;;;;;;15.00;99.90;;;;;;7334837;19;109220;-66
2023/08/29 01:28:42;;;;;;;;;;;15.00;99.90;;;;;;7334850;19;110213;-66
2023/08/29 01:31:10;;;;;;;;;;;15.00;99.90;;;;;;7335566;19;110409;-66
2023/08/29 01:33:38;;;;;;;;;;;14.90;99.90;;;;;;7331366;19;112161;-66
2023/08/29 01:36:06;;;;;;;;;;;14.90;99.90;;;;;;7332701;19;108983;-66
2023/08/29 01:38:34;;;;;;;;;;;14.90;99.90;;;;;;7333620;19;110114;-66
2023/08/29 01:41:01;;;;;;;;;;;14.90;99.90;;;;;;7336922;19;109326;-66
2023/08/29 01:43:28;;;;;;;;;;;14.90;99.90;;;;;;7332210;19;110144;-66
2023/08/29 01:45:55;;;;;;;;;;;14.80;99.90;;;;;;7339331;19;109303;-66
2023/08/29 01:48:22;;;;;;;;;;;14.80;99.90;;;;;;7331580;19;108951;-66
2023/08/29 01:50:49;;;;;;;;;;;14.70;99.90;;;;;;7336943;19;109200;-66
2023/08/29 01:53:17;;;;;;;;;;;14.60;99.90;;;;;;7329336;19;109381;-66
2023/08/29 01:55:44;;;;;;;;;;;14.60;99.90;;;;;;7333938;19;110223;-66
2023/08/29 01:58:15;;;;;;;;;;;14.50;99.90;;;;;;7335870;19;129657;-66
2023/08/29 02:00:43;;;;;;;;;;;14.50;99.90;;;;;;7332817;19;108598;-66
2023/08/29 02:03:10;;;;;;;;;;;14.50;99.90;;;;;;7331448;19;109262;-66
2023/08/29 02:05:37;;;;;;;;;;;14.30;99.90;;;;;;7334046;19;109111;-66
2023/08/29 02:08:05;;;;;;;;;;;14.30;99.90;;;;;;7340014;19;108890;-66
2023/08/29 02:10:32;;;;;;;;;;;14.30;99.90;;;;;;7333581;19;112352;-65
2023/08/29 02:12:59;;;;;;;;;;;14.30;99.90;;;;;;7336747;19;110650;-66
2023/08/29 02:15:26;;;;;;;;;;;14.30;99.90;;;;;;7323630;19;109290;-66
2023/08/29 02:17:54;;;;;;;;;;;14.30;99.90;;;;;;7333842;19;110517;-67
2023/08/29 02:20:21;;;;;;;;;;;14.30;99.90;;;;;;7333598;19;110477;-66
2023/08/29 02:22:48;;;;;;;;;;;14.30;99.90;;;;;;7333441;19;109278;-67
2023/08/29 02:25:15;;;;;;;;;;;14.30;99.90;;;;;;7336416;19;108940;-66
2023/08/29 02:27:42;;;;;;;;;;;14.30;99.90;;;;;;7331024;19;110216;-66
2023/08/29 02:30:10;;;;;;;;;;;14.20;99.90;;;;;;7339881;19;110049;-66
2023/08/29 02:32:38;;;;;;;;;;;14.10;99.90;;;;;;7333716;19;109500;-66
2023/08/29 02:35:06;;;;;;;;;;;14.10;99.90;;;;;;7334530;19;108354;-66
2023/08/29 02:37:34;;;;;;;;;;;14.00;99.90;;;;;;7334263;19;109426;-66
2023/08/29 02:40:07;;;;;;;;;;;14.00;99.90;;;;;;7334614;19;110319;-66
2023/08/29 02:42:35;;;;;;;;;;;14.00;99.90;;;;;;7334541;19;110086;-66
2023/08/29 02:45:03;;;;;;;;;;;13.90;99.90;;;;;;7334473;19;109185;-66
2023/08/29 02:47:30;;;;;;;;;;;13.80;99.90;;;;;;7333272;19;108879;-66
2023/08/29 02:49:57;;;;;;;;;;;13.80;99.90;;;;;;7337879;19;108839;-66
2023/08/29 02:52:24;;;;;;;;;;;13.70;99.90;;;;;;7334302;19;109030;-66
2023/08/29 02:54:51;;;;;;;;;;;13.80;99.90;;;;;;7333853;19;109828;-66
2023/08/29 02:57:19;;;;;;;;;;;13.70;99.90;;;;;;7330091;19;109575;-66
2023/08/29 02:59:46;;;;;;;;;;;13.70;99.90;;;;;;7332922;19;110238;-66
2023/08/29 03:02:13;;;;;;;;;;;13.60;99.90;;;;;;7329593;19;110061;-67
2023/08/29 03:04:40;;;;;;;;;;;13.70;99.90;;;;;;7334372;19;109131;-66
2023/08/29 03:07:07;;;;;;;;;;;13.70;99.90;;;;;;7331108;19;109154;-66
2023/08/29 03:09:34;;;;;;;;;;;13.70;99.90;;;;;;7331371;19;109403;-66
2023/08/29 03:12:02;;;;;;;;;;;13.70;99.90;;;;;;7337303;19;109283;-66
2023/08/29 03:14:29;;;;;;;;;;;13.80;99.90;;;;;;7337009;19;108826;-66
2023/08/29 03:16:57;;;;;;;;;;;13.70;99.90;;;;;;7338538;19;109589;-66
2023/08/29 03:19:24;;;;;;;;;;;13.70;99.90;;;;;;7339232;19;109293;-67
2023/08/29 03:21:51;;;;;;;;;;;13.70;99.90;;;;;;7340135;19;111021;-66
2023/08/29 03:24:18;;;;;;;;;;;13.70;99.90;;;;;;7338120;19;109056;-66
2023/08/29 03:26:45;;;;;;;;;;;13.70;99.90;;;;;;7338290;19;108777;-67
2023/08/29 03:29:12;;;;;;;;;;;13.70;99.90;;;;;;7339613;19;111809;-66
2023/08/29 03:31:39;;;;;;;;;;;13.60;99.90;;;;;;7336096;19;109408;-66
2023/08/29 03:34:06;;;;;;;;;;;13.70;99.90;;;;;;7346850;19;108962;-66
2023/08/29 03:36:33;;;;;;;;;;;13.70;99.90;;;;;;7336446;19;109438;-67
2023/08/29 03:39:02;;;;;;;;;;;13.70;99.90;;;;;;7340506;19;112926;-66
2023/08/29 03:41:30;;;;;;;;;;;13.70;99.90;;;;;;7336803;19;109191;-66
2023/08/29 03:43:57;;;;;;;;;;;13.60;99.90;;;;;;7341714;19;109093;-66
2023/08/29 03:46:24;;;;;;;;;;;13.50;99.90;;;;;;7337068;19;109857;-66
2023/08/29 03:48:51;;;;;;;;;;;13.50;99.90;;;;;;7338332;19;108863;-66
2023/08/29 03:51:18;;;;;;;;;;;13.50;99.90;;;;;;7338119;19;110501;-66
2023/08/29 03:53:46;;;;;;;;;;;13.50;99.90;;;;;;7340643;19;111818;-66
2023/08/29 03:56:13;;;;;;;;;;;13.50;99.90;;;;;;7343798;19;109585;-66
2023/08/29 03:58:40;;;;;;;;;;;13.50;99.90;;;;;;7338980;19;109823;-67
2023/08/29 04:01:07;;;;;;;;;;;13.50;99.90;;;;;;7338620;19;108769;-67
2023/08/29 04:03:34;;;;;;;;;;;13.60;99.90;;;;;;7337369;19;111421;-67
2023/08/29 04:06:03;;;;;;;;;;;13.60;99.90;;;;;;7338013;19;110057;-66
2023/08/29 04:08:30;;;;;;;;;;;13.50;99.90;;;;;;7335832;19;110829;-66
2023/08/29 04:10:57;;;;;;;;;;;13.50;99.90;;;;;;7337360;19;109068;-66
2023/08/29 04:13:24;;;;;;;;;;;13.40;99.90;;;;;;7338644;19;109145;-66
2023/08/29 04:15:52;;;;;;;;;;;13.40;99.90;;;;;;7337975;19;109009;-67
2023/08/29 04:18:19;;;;;;;;;;;13.40;99.90;;;;;;7344719;19;110047;-67
2023/08/29 04:20:46;;;;;;;;;;;13.30;99.90;;;;;;7336983;19;108987;-66
2023/08/29 04:23:13;;;;;;;;;;;13.20;99.90;;;;;;7337723;19;109972;-66
2023/08/29 04:25:40;;;;;;;;;;;13.20;99.90;;;;;;7333639;19;108907;-65
2023/08/29 04:28:07;;;;;;;;;;;13.20;99.90;;;;;;7336901;19;111272;-66
2023/08/29 04:30:35;;;;;;;;;;;13.30;99.90;;;;;;7336385;19;110836;-66
2023/08/29 04:33:03;;;;;;;;;;;13.30;99.90;;;;;;7335754;19;108524;-66
2023/08/29 04:35:30;;;;;;;;;;;13.30;99.90;;;;;;7338274;19;109790;-66
2023/08/29 04:37:57;;;;;;;;;;;13.30;99.90;;;;;;7336397;19;110085;-66
2023/08/29 04:40:24;;;;;;;;;;;13.30;99.90;;;;;;7343550;19;109032;-66
2023/08/29 04:42:51;;;;;;;;;;;13.30;99.90;;;;;;7335718;19;109188;-66
2023/08/29 04:45:19;;;;;;;;;;;13.30;99.90;;;;;;7335901;19;109607;-66
2023/08/29 04:47:46;;;;;;;;;;;13.40;99.90;;;;;;7334222;19;110023;-66
2023/08/29 04:50:14;;;;;;;;;;;13.50;99.90;;;;;;7336498;19;110139;-66
2023/08/29 04:52:41;;;;;;;;;;;13.50;99.90;;;;;;7337572;19;109049;-66
2023/08/29 04:55:08;;;;;;;;;;;13.50;99.90;;;;;;7336214;19;108964;-67
2023/08/29 04:57:36;;;;;;;;;;;13.60;99.90;;;;;;7335233;19;110808;-66
2023/08/29 05:00:05;;;;;;;;;;;13.60;99.90;;;;;;7340075;19;109622;-66
2023/08/29 05:02:33;;;;;;;;;;;13.60;99.90;;;;;;7335231;19;110060;-68
2023/08/29 05:05:00;;;;;;;;;;;13.60;99.90;;;;;;7338077;19;109899;-67
2023/08/29 05:07:27;;;;;;;;;;;13.70;99.90;;;;;;7334483;19;109455;-67
2023/08/29 05:09:55;;;;;;;;;;;13.70;99.90;;;;;;7330407;19;110036;-66
2023/08/29 05:12:23;;;;;;;;;;;13.70;99.90;;;;;;7335675;19;109281;-67
2023/08/29 05:14:50;;;;;;;;;;;13.70;99.90;;;;;;7338009;19;108937;-66
2023/08/29 05:17:17;;;;;;;;;;;13.70;99.90;;;;;;7332459;19;109579;-67
2023/08/29 05:19:49;;;;;;;;;;;13.70;99.90;;;;;;7334495;19;111225;-66
2023/08/29 05:22:16;;;;;;;;;;;13.60;99.90;;;;;;7338483;19;110764;-66
2023/08/29 05:24:44;;;;;;;;;;;13.60;99.90;;;;;;7335846;19;109142;-67
2023/08/29 05:27:11;;;;;;;;;;;13.60;99.90;;;;;;7334937;19;109177;-68
2023/08/29 05:29:38;;;;;;;;;;;13.50;99.90;;;;;;7333901;19;109927;-69
2023/08/29 05:32:06;;;;;;;;;;;13.60;99.90;;;;;;7336185;19;108832;-69
2023/08/29 05:34:33;;;;;;;;;;;13.60;99.90;;;;;;7335077;19;109307;-72
2023/08/29 05:37:00;;;;;;;;;;;13.60;99.90;;;;;;7337699;19;109688;-70
2023/08/29 05:39:27;;;;;;;;;;;13.60;99.90;;;;;;7331241;19;109426;-72
2023/08/29 05:42:01;;;;;;;;;;;13.60;99.90;;;;;;7337289;19;108884;-69
2023/08/29 05:44:28;;;;;;;;;;;13.70;99.90;;;;;;7338449;19;110581;-71
2023/08/29 05:46:55;;;;;;;;;;;13.70;99.90;;;;;;7337164;19;108848;-67
2023/08/29 05:49:22;;;;;;;;;;;13.80;99.90;;;;;;7331219;19;109245;-69
2023/08/29 05:51:49;;;;;;;;;;;13.90;99.90;;;;;;7337551;19;108823;-84
2023/08/29 05:54:18;;;;;;;;;;;13.90;99.90;;;;;;7369648;19;108896;-84
2023/08/29 05:56:45;;;;;;;;;;;14.00;99.90;;;;;;7364231;19;111597;-83
2023/08/29 05:59:13;;;;;;;;;;;14.00;99.90;;;;;;7370652;19;108959;-84
2023/08/29 06:01:40;;;;;;;;;;;14.00;99.90;;;;;;7366483;19;110413;-84
2023/08/29 06:04:14;;;;;;;;;;;14.10;99.90;;;;;;7371393;19;108913;-84
2023/08/29 06:06:43;;;;;;;;;;;14.20;99.90;;;;;;7364203;19;108510;-84
2023/08/29 06:09:10;;;;;;;;;;;14.20;99.90;;;;;;7358174;19;109473;-84
2023/08/29 06:11:37;;;;;;;;;;;14.30;99.90;;;;;;7363051;19;108729;-84
2023/08/29 06:14:05;;;;;;;;;;;14.40;99.90;;;;;;7359511;19;109392;-84
2023/08/29 06:16:32;;;;;;;;;;;14.40;99.90;;;;;;7339012;19;109908;-84
2023/08/29 06:18:59;;;;;;;;;;;14.50;99.90;;;;;;7341244;19;108722;-84
2023/08/29 06:21:26;;;;;;;;;;;14.50;99.90;;;;;;7339410;19;110601;-85
2023/08/29 06:23:54;;;;;;;;;;;14.60;99.90;;;;;;7338481;19;109002;-84
2023/08/29 06:26:21;;;;;;;;;;;14.70;99.90;;;;;;7334524;19;109315;-84
2023/08/29 06:28:48;;;;;;;;;;;14.70;99.90;;;;;;7333308;19;111537;-84
2023/08/29 06:31:15;;;;;;;;;;;14.80;99.90;;;;;;7336101;19;108570;-84
2023/08/29 06:33:42;;;;;;;;;;;14.80;99.90;;;;;;7332470;19;112918;-84
2023/08/29 06:36:09;;;;;;;;;;;14.90;99.90;;;;;;7335540;19;109920;-84
2023/08/29 06:38:37;;;;;;;;;;;15.00;99.90;;;;;;7338133;19;108489;-84
2023/08/29 06:41:04;;;;;;;;;;;15.00;99.90;;;;;;7343304;19;109874;-84
2023/08/29 06:43:31;;;;;;;;;;;15.10;99.90;;;;;;7335505;19;114161;-84
2023/08/29 06:45:59;;;;;;;;;;;15.20;99.90;;;;;;7335671;19;109305;-84
2023/08/29 06:48:26;;;;;;;;;;;15.30;99.90;;;;;;7339284;19;112568;-85
2023/08/29 06:50:53;;;;;;;;;;;15.30;99.90;;;;;;7336557;19;109622;-84
2023/08/29 06:53:20;;;;;;;;;;;15.40;99.90;;;;;;7335039;19;109270;-83
2023/08/29 06:55:49;;;;;;;;;;;15.40;99.90;;;;;;7330972;19;110543;-83
2023/08/29 06:58:17;;;;;;;;;;;15.50;99.90;;;;;;7337736;19;109150;-83
2023/08/29 07:00:44;;;;;;;;;;;15.60;99.90;;;;;;7333092;19;112243;-87
2023/08/29 07:03:11;;;;;;;;;;;15.60;99.90;;;;;;7335055;19;110237;-85
2023/08/29 07:05:39;;;;;;;;;;;15.60;99.90;;;;;;7335309;19;110248;-85
2023/08/29 07:08:06;;;;;;;;;;;15.70;99.90;;;;;;7337969;19;110814;-86
2023/08/29 07:10:34;;;;;;;;;;;15.70;99.90;;;;;;7332265;19;109798;-85
2023/08/29 07:13:03;;;;;;;;;;;15.80;99.90;;;;;;7324864;19;112112;-83
2023/08/29 07:15:31;;;;;;;;;;;15.90;99.90;;;;;;7325494;19;112944;-84
2023/08/29 07:17:58;;;;;;;;;;;16.10;99.90;;;;;;7334553;19;108777;-84
2023/08/29 07:20:25;;;;;;;;;;;16.20;99.90;;;;;;7327983;19;108728;-84
2023/08/29 07:22:53;;;;;;;;;;;16.30;99.90;;;;;;7323481;19;110906;-84
2023/08/29 07:25:34;;;;;;;;;;;16.40;99.90;;;;;;7328452;19;108586;-84
2023/08/29 07:28:02;;;;;;;;;;;16.50;99.90;;;;;;7332597;19;109555;-83
2023/08/29 07:30:29;;;;;;;;;;;16.60;99.90;;;;;;7327958;19;111026;-83
2023/08/29 07:32:56;;;;;;;;;;;16.70;99.90;;;;;;7334665;19;108950;-83
2023/08/29 07:35:24;;;;;;;;;;;16.80;99.90;;;;;;7323786;19;110315;-83
2023/08/29 07:37:52;;;;;;;;;;;16.90;99.90;;;;;;7332919;19;109351;-83
2023/08/29 07:40:19;;;;;;;;;;;16.90;99.90;;;;;;7329011;19;110582;-83
2023/08/29 07:42:47;;;;;;;;;;;17.00;99.90;;;;;;7330580;19;110242;-84
2023/08/29 07:45:17;;;;;;;;;;;17.00;99.90;;;;;;7328842;19;110210;-84
2023/08/29 07:47:44;;;;;;;;;;;17.10;99.90;;;;;;7328029;19;110368;-85
2023/08/29 07:50:11;;;;;;;;;;;17.20;99.90;;;;;;7330566;19;110290;-85
2023/08/29 07:52:38;;;;;;;;;;;17.30;99.90;;;;;;7326658;19;108570;-85
2023/08/29 07:55:08;;;;;;;;;;;17.30;99.90;;;;;;7331675;19;112713;-85
2023/08/29 07:57:35;;;;;;;;;;;17.40;99.90;;;;;;7326717;19;112417;-85
2023/08/29 08:00:05;;;;;;;;;;;17.50;99.90;;;;;;7328089;19;111751;-85
2023/08/29 08:02:38;;;;;;;;;;;17.60;99.90;;;;;;7336667;19;111039;-85
2023/08/29 08:05:05;;;;;;;;;;;17.80;99.90;;;;;;7336247;19;111241;-84
2023/08/29 08:07:32;;;;;;;;;;;17.80;99.90;;;;;;7332388;19;110218;-85
2023/08/29 08:10:04;;;;;;;;;;;17.90;99.90;;;;;;7333248;19;110443;-85
2023/08/29 08:12:35;;;;;;;;;;;18.00;99.90;;;;;;7333917;19;109089;-85
2023/08/29 08:15:04;;;;;;;;;;;18.10;99.90;;;;;;7336165;19;109018;-85
2023/08/29 08:17:34;;;;;;;;;;;18.20;99.90;;;;;;7337693;19;109212;-81
2023/08/29 08:20:07;;;;;;;;;;;18.30;99.90;;;;;;7330810;19;110182;-81
2023/08/29 08:22:35;;;;;;;;;;;18.40;99.90;;;;;;7333881;19;110253;-81
2023/08/29 08:25:06;;;;;;;;;;;18.50;99.90;;;;;;7331391;19;108943;-81
2023/08/29 08:27:34;;;;;;;;;;;18.50;99.90;;;;;;7331224;19;111349;-81
2023/08/29 08:30:01;;;;;;;;;;;18.60;99.90;;;;;;7331062;19;111776;-81
2023/08/29 08:32:28;;;;;;;;;;;18.70;99.90;;;;;;7334606;19;108400;-69
2023/08/29 08:34:55;;;;;;;;;;;18.80;99.90;;;;;;7337425;19;109529;-68
2023/08/29 08:37:23;;;;;;;;;;;18.90;99.90;;;;;;7337468;19;109128;-68
2023/08/29 08:39:50;;;;;;;;;;;19.00;99.90;;;;;;7342855;19;108409;-68
2023/08/29 08:42:18;;;;;;;;;;;19.10;99.90;;;;;;7337763;19;110220;-69
2023/08/29 08:44:45;;;;;;;;;;;19.10;99.90;;;;;;7337976;19;108599;-68
2023/08/29 08:47:13;;;;;;;;;;;19.20;99.90;;;;;;7337518;19;110582;-68
2023/08/29 08:49:40;;;;;;;;;;;19.30;99.90;;;;;;7332962;19;109896;-69
2023/08/29 08:52:07;;;;;;;;;;;19.40;99.90;;;;;;7338922;19;108877;-68
2023/08/29 08:54:35;;;;;;;;;;;19.50;99.90;;;;;;7335820;19;108978;-68
2023/08/29 08:57:02;;;;;;;;;;;19.60;99.90;;;;;;7337850;19;109126;-68
2023/08/29 08:59:29;;;;;;;;;;;19.60;99.90;;;;;;7343771;19;108598;-68
2023/08/29 09:01:56;;;;;;;;;;;19.70;99.90;;;;;;7331640;19;110101;-68
2023/08/29 09:04:24;;;;;;;;;;;19.80;99.90;;;;;;7337729;19;108741;-68
2023/08/29 09:06:51;;;;;;;;;;;19.80;99.90;;;;;;7334348;19;108695;-68
2023/08/29 09:09:19;;;;;;;;;;;19.90;99.90;;;;;;7336839;19;110324;-70
2023/08/29 09:11:54;;;;;;;;;;;19.90;99.90;;;;;;7334310;19;110023;-68
2023/08/29 09:14:21;;;;;;;;;;;19.90;99.90;;;;;;7337034;19;108527;-68
2023/08/29 09:17:07;;;;;;;;;;;19.80;99.90;;;;;;7336234;19;110030;-68
2023/08/29 09:19:35;;;;;;;;;;;19.90;99.90;;;;;;7336218;19;108762;-68
2023/08/29 09:22:02;;;;;;;;;;;19.90;99.90;;;;;;7341526;19;109077;-68
2023/08/29 09:24:36;;;;;;;;;;;19.90;99.90;;;;;;7337212;19;108750;-69
2023/08/29 09:27:07;;;;;;;;;;;19.90;99.90;;;;;;7335284;19;109101;-69
2023/08/29 09:29:35;;;;;;;;;;;19.90;99.90;;;;;;7336769;19;109994;-69
2023/08/29 09:32:15;;;;;;;;;;;20.00;99.90;;;;;;7335720;19;109698;-69
2023/08/29 09:34:42;;;;;;;;;;;20.00;99.90;;;;;;7335324;19;109460;-69
2023/08/29 09:37:12;;;;;;;;;;;20.10;99.90;;;;;;7336428;19;110062;-69
2023/08/29 09:39:39;;;;;;;;;;;20.10;99.90;;;;;;7335249;19;108870;-69
2023/08/29 09:42:11;;;;;;;;;;;20.10;99.90;;;;;;7335220;19;108312;-68
2023/08/29 09:44:39;;;;;;;;;;;20.20;99.90;;;;;;7338218;19;110492;-69
2023/08/29 09:47:08;;;;;;;;;;;20.20;99.90;;;;;;7337418;19;109127;-68
2023/08/29 09:49:46;;;;;;;;;;;20.20;99.90;;;;;;7336309;19;110530;-68
2023/08/29 09:52:14;;;;;;;;;;;20.20;99.90;;;;;;7337915;19;108736;-68
2023/08/29 09:54:47;;;;;;;;;;;20.30;99.90;;;;;;7334995;19;110442;-68
2023/08/29 09:57:18;;;;;;;;;;;20.40;99.90;;;;;;7336492;19;109171;-68
2023/08/29 09:59:46;;;;;;;;;;;20.50;99.90;;;;;;7336719;19;109475;-70
2023/08/29 10:02:14;;;;;;;;;;;20.50;99.90;;;;;;7336777;19;108819;-68
2023/08/29 10:04:43;;;;;;;;;;;20.50;99.90;;;;;;7336552;19;109371;-70
2023/08/29 10:07:19;;;;;;;;;;;20.50;99.90;;;;;;7342735;19;109594;-69
2023/08/29 10:09:46;;;;;;;;;;;20.50;99.90;;;;;;7336877;19;109794;-69
2023/08/29 10:12:13;;;;;;;;;;;20.60;99.90;;;;;;7335753;19;108991;-69
2023/08/29 10:14:41;;;;;;;;;;;20.60;99.90;;;;;;7332415;19;111909;-69
2023/08/29 10:17:10;;;;;;;;;;;20.60;99.90;;;;;;7337362;19;109752;-69
2023/08/29 10:19:57;;;;;;;;;;;20.60;99.90;;;;;;7335608;19;108629;-68
2023/08/29 10:22:25;;;;;;;;;;;20.60;99.90;;;;;;7335327;19;108764;-70
2023/08/29 10:24:53;;;;;;;;;;;20.70;99.90;;;;;;7334647;19;110055;-71
2023/08/29 10:27:20;;;;;;;;;;;20.80;99.90;;;;;;7336022;19;110037;-69
2023/08/29 10:29:47;;;;;;;;;;;20.80;99.90;;;;;;7341370;19;108568;-68
2023/08/29 10:32:14;;;;;;;;;;;20.90;99.90;;;;;;7335413;19;108349;-68
2023/08/29 10:34:41;;;;;;;;;;;20.90;99.90;;;;;;7332581;19;108823;-68
2023/08/29 10:37:18;;;;;;;;;;;21.00;99.90;;;;;;7334684;19;114265;-69
2023/08/29 10:39:46;;;;;;;;;;;21.00;99.90;;;;;;7335770;19;110393;-68
2023/08/29 10:42:13;;;;;;;;;;;21.10;99.90;;;;;;7333670;19;108711;-68
2023/08/29 10:44:42;;;;;;;;;;;21.10;99.90;;;;;;7328251;19;110722;-69
2023/08/29 10:47:28;;;;;;;;;;;21.10;99.90;;;;;;7333870;19;109696;-69
2023/08/29 10:49:58;;;;;;;;;;;21.20;99.90;;;;;;7332352;19;109090;-69
2023/08/29 10:52:41;;;;;;;;;;;21.30;99.90;;;;;;7338865;19;109098;-71
2023/08/29 10:55:17;;;;;;;;;;;21.50;99.90;;;;;;7333612;19;108586;-68
2023/08/29 10:57:44;;;;;;;;;;;21.60;99.90;;;;;;7334615;19;109859;-70
2023/08/29 11:00:18;;;;;;;;;;;21.60;99.90;;;;;;7333578;19;109520;-67
2023/08/29 11:02:47;;;;;;;;;;;21.70;99.90;;;;;;7333762;19;108831;-71
2023/08/29 11:05:15;;;;;;;;;;;21.80;99.90;;;;;;7332005;19;109740;-69
2023/08/29 11:07:43;;;;;;;;;;;21.90;99.90;;;;;;7335687;19;108957;-70
2023/08/29 11:10:22;;;;;;;;;;;21.90;99.90;;;;;;7334562;19;108698;-69
2023/08/29 11:13:06;;;;;;;;;;;21.90;99.90;;;;;;7337817;19;110187;-69
2023/08/29 11:15:48;;;;;;;;;;;22.10;99.90;;;;;;7333552;19;108958;-70
2023/08/29 11:18:34;;;;;;;;;;;22.40;99.90;;;;;;7333266;19;108862;-69
2023/08/29 11:21:05;;;;;;;;;;;22.60;99.90;;;;;;7334250;19;109134;-70
2023/08/29 11:23:33;;;;;;;;;;;22.70;99.90;;;;;;7334021;19;108861;-70
2023/08/29 11:26:01;;;;;;;;;;;22.90;99.90;;;;;;7333691;19;109180;-69
2023/08/29 11:28:30;;;;;;;;;;;23.00;99.90;;;;;;7333792;19;108797;-70
2023/08/29 11:30:58;;;;;;;;;;;23.20;99.90;;;;;;7333604;19;109065;-69
2023/08/29 11:33:32;;;;;;;;;;;23.30;99.90;;;;;;7330003;19;109726;-69
2023/08/29 11:36:00;;;;;;;;;;;23.30;99.90;;;;;;7343244;19;109542;-71
2023/08/29 11:38:30;;;;;;;;;;;23.50;99.90;;;;;;7339417;19;109178;-70
2023/08/29 11:40:58;;;;;;;;;;;23.70;99.90;;;;;;7341712;19;108949;-70
2023/08/29 11:43:45;;;;;;;;;;;23.70;99.90;;;;;;7343898;19;111307;-70
2023/08/29 11:46:33;;;;;;;;;;;23.90;99.90;;;;;;7338265;19;111115;-69
2023/08/29 11:49:00;;;;;;;;;;;23.90;99.90;;;;;;7339259;19;108337;-69
2023/08/29 11:51:27;;;;;;;;;;;23.80;99.90;;;;;;7338684;19;108557;-70
2023/08/29 11:53:55;;;;;;;;;;;23.80;99.90;;;;;;7339370;19;111526;-69
2023/08/29 11:56:22;;;;;;;;;;;23.90;99.90;;;;;;7338137;19;108993;-70
2023/08/29 11:58:50;;;;;;;;;;;24.10;99.90;;;;;;7345531;19;108648;-69
2023/08/29 12:01:17;;;;;;;;;;;24.30;99.90;;;;;;7338944;19;108856;-70
2023/08/29 12:03:44;;;;;;;;;;;24.30;99.90;;;;;;7338175;19;110673;-70
2023/08/29 12:06:12;;;;;;;;;;;24.20;99.90;;;;;;7341142;19;110190;-71
2023/08/29 12:08:45;;;;;;;;;;;24.10;99.90;;;;;;7338677;19;110497;-70
2023/08/29 12:11:14;;;;;;;;;;;24.30;99.90;;;;;;7341202;19;109148;-71
2023/08/29 12:13:56;;;;;;;;;;;24.40;99.90;;;;;;7336769;19;113813;-71
2023/08/29 12:16:24;;;;;;;;;;;24.50;99.90;;;;;;7336448;19;109327;-70
2023/08/29 12:19:02;;;;;;;;;;;24.50;99.90;;;;;;7341981;19;110230;-70
2023/08/29 12:21:29;;;;;;;;;;;24.50;99.90;;;;;;7342321;19;109889;-69
2023/08/29 12:24:07;;;;;;;;;;;24.70;99.90;;;;;;7342559;19;108667;-70
2023/08/29 12:26:34;;;;;;;;;;;24.90;99.90;;;;;;7338872;19;109902;-70
2023/08/29 12:29:02;;;;;;;;;;;24.90;99.90;;;;;;7338235;19;108889;-71
2023/08/29 12:31:29;;;;;;;;;;;24.80;99.90;;;;;;7339889;19;109503;-71
2023/08/29 12:33:57;;;;;;;;;;;24.70;99.90;;;;;;7337578;19;109984;-70
2023/08/29 12:36:24;;;;;;;;;;;24.70;99.90;;;;;;7334068;19;109174;-71
2023/08/29 12:38:51;;;;;;;;;;;24.80;99.90;;;;;;7338517;19;108699;-70
2023/08/29 12:41:18;;;;;;;;;;;24.70;99.90;;;;;;7336193;19;109311;-71
2023/08/29 12:43:45;;;;;;;;;;;24.70;99.90;;;;;;7344757;19;108359;-71
2023/08/29 12:46:13;;;;;;;;;;;24.70;99.90;;;;;;7333821;19;109634;-71
2023/08/29 12:48:40;;;;;;;;;;;24.50;99.90;;;;;;7339168;19;108808;-70
2023/08/29 12:51:07;;;;;;;;;;;24.50;99.90;;;;;;7335141;19;108712;-72
2023/08/29 12:53:35;;;;;;;;;;;24.30;99.90;;;;;;7338305;19;109561;-70
2023/08/29 12:56:02;;;;;;;;;;;24.20;99.90;;;;;;7337406;19;108420;-70
2023/08/29 12:58:32;;;;;;;;;;;24.10;99.90;;;;;;7338791;19;109003;-70
2023/08/29 13:00:59;;;;;;;;;;;24.00;99.90;;;;;;7336935;19;112185;-71
2023/08/29 13:03:26;;;;;;;;;;;23.90;99.90;;;;;;7334914;19;108538;-70
2023/08/29 13:05:54;;;;;;;;;;;23.90;99.90;;;;;;7340723;19;109128;-71
2023/08/29 13:08:21;;;;;;;;;;;24.10;99.90;;;;;;7335992;19;109901;-72
2023/08/29 13:10:48;;;;;;;;;;;24.20;99.90;;;;;;7336801;19;109392;-70
2023/08/29 13:13:16;;;;;;;;;;;24.20;99.90;;;;;;7335638;19;109456;-70
2023/08/29 13:15:43;;;;;;;;;;;24.00;99.90;;;;;;7337500;19;109097;-71
2023/08/29 13:18:17;;;;;;;;;;;23.90;99.90;;;;;;7333863;19;108598;-72
2023/08/29 13:20:44;;;;;;;;;;;23.90;99.90;;;;;;7336691;19;109574;-71
2023/08/29 13:23:11;;;;;;;;;;;23.90;99.90;;;;;;7336949;19;108605;-71
2023/08/29 13:25:39;;;;;;;;;;;23.80;99.90;;;;;;7340051;19;108566;-71
2023/08/29 13:28:06;;;;;;;;;;;23.60;99.90;;;;;;7336693;19;114447;-70
2023/08/29 13:30:33;;;;;;;;;;;23.50;99.90;;;;;;7334435;19;109057;-69
2023/08/29 13:33:00;;;;;;;;;;;23.20;99.90;;;;;;7335982;19;109039;-70
2023/08/29 13:35:28;;;;;;;;;;;23.00;99.90;;;;;;7337930;19;108544;-69
2023/08/29 13:37:55;;;;;;;;;;;22.90;99.90;;;;;;7335175;19;108692;-70
2023/08/29 13:40:22;;;;;;;;;;;22.70;99.90;;;;;;7336757;19;109940;-71
2023/08/29 13:42:50;;;;;;;;;;;22.50;99.90;;;;;;7336031;19;108799;-70
2023/08/29 13:45:17;;;;;;;;;;;22.40;99.90;;;;;;7335286;19;108647;-70
2023/08/29 13:47:44;;;;;;;;;;;22.20;99.90;;;;;;7337402;19;109072;-70
2023/08/29 13:50:12;;;;;;;;;;;22.00;99.90;;;;;;7336006;19;109008;-69
2023/08/29 13:52:39;;;;;;;;;;;21.80;99.90;;;;;;7333208;19;109485;-69
2023/08/29 13:55:06;;;;;;;;;;;21.70;99.90;;;;;;7334916;19;109184;-70
2023/08/29 13:57:33;;;;;;;;;;;21.60;99.90;;;;;;7336955;19;108896;-70
2023/08/29 14:00:00;;;;;;;;;;;21.50;99.90;;;;;;7335162;19;109128;-70
2023/08/29 14:02:28;;;;;;;;;;;21.30;99.90;;;;;;7336500;19;111195;-70
2023/08/29 14:04:55;;;;;;;;;;;21.20;99.90;;;;;;7336049;19;110447;-70
2023/08/29 14:07:22;;;;;;;;;;;21.10;99.90;;;;;;7335418;19;109684;-70
2023/08/29 14:09:50;;;;;;;;;;;21.00;99.90;;;;;;7341796;19;108975;-70
2023/08/29 14:12:17;;;;;;;;;;;21.00;99.90;;;;;;7334444;19;109519;-69